createdAt,value
2017-04-30T04:00:31.756Z,82.92
2017-04-30T04:00:57.214Z,83.3
2017-04-30T04:01:22.785Z,83.02
2017-04-30T04:01:48.249Z,83.11
2017-04-30T04:02:13.746Z,83.21
2017-04-30T04:02:39.193Z,82.92
2017-04-30T04:03:04.676Z,82.92
2017-04-30T04:03:30.139Z,83.02
2017-04-30T04:03:55.630Z,82.92
2017-04-30T04:04:21.069Z,82.87
2017-04-30T04:04:46.533Z,83.15
2017-04-30T04:05:11.999Z,82.59
2017-04-30T04:05:37.470Z,82.92
2017-04-30T04:06:02.897Z,82.31
2017-04-30T04:06:28.350Z,82.59
2017-04-30T04:06:53.821Z,82.59
2017-04-30T04:07:19.305Z,82.45
2017-04-30T04:07:44.691Z,82.73
2017-04-30T04:08:10.173Z,82.87
2017-04-30T04:08:35.657Z,82.92
2017-04-30T04:09:01.153Z,83.21
2017-04-30T04:09:26.605Z,83.02
2017-04-30T04:09:52.192Z,82.73
2017-04-30T04:10:17.646Z,82.64
2017-04-30T04:10:43.156Z,82.64
2017-04-30T04:11:08.608Z,82.68
2017-04-30T04:11:34.025Z,82.97
2017-04-30T04:11:59.507Z,82.4
2017-04-30T04:12:24.977Z,82.4
2017-04-30T04:12:50.465Z,82.12
2017-04-30T04:13:15.903Z,82.02
2017-04-30T04:13:41.366Z,82.21
2017-04-30T04:14:06.832Z,82.4
2017-04-30T04:14:32.288Z,82.5
2017-04-30T04:14:57.706Z,82.31
2017-04-30T04:15:23.188Z,82.12
2017-04-30T04:15:48.646Z,82.31
2017-04-30T04:16:14.114Z,82.5
2017-04-30T04:16:39.601Z,82.4
2017-04-30T04:17:05.066Z,82.31
2017-04-30T04:17:30.532Z,82.4
2017-04-30T04:17:55.990Z,82.12
2017-04-30T04:18:21.490Z,82.02
2017-04-30T04:18:46.989Z,82.31
2017-04-30T04:19:12.423Z,82.21
2017-04-30T04:19:37.877Z,82.4
2017-04-30T04:20:03.371Z,81.83
2017-04-30T04:20:28.801Z,81.74
2017-04-30T04:20:54.257Z,81.93
2017-04-30T04:21:19.742Z,81.45
2017-04-30T04:21:45.195Z,81.93
2017-04-30T04:22:10.662Z,81.83
2017-04-30T04:22:36.136Z,81.36
2017-04-30T04:23:01.599Z,81.55
2017-04-30T04:23:27.063Z,81.36
2017-04-30T04:23:52.546Z,81.36
2017-04-30T04:24:17.993Z,81.36
2017-04-30T04:24:43.441Z,81.74
2017-04-30T04:25:08.932Z,81.17
2017-04-30T04:25:34.388Z,81.36
2017-04-30T04:25:59.872Z,81.07
2017-04-30T04:26:25.510Z,81.64
2017-04-30T04:26:50.903Z,81.45
2017-04-30T04:27:16.343Z,81.26
2017-04-30T04:27:41.803Z,80.98
2017-04-30T04:28:07.240Z,81.36
2017-04-30T04:28:32.713Z,80.98
2017-04-30T04:28:58.190Z,81.17
2017-04-30T04:29:23.756Z,81.07
2017-04-30T04:29:49.299Z,80.98
2017-04-30T04:30:14.732Z,81.07
2017-04-30T04:30:40.241Z,80.6
2017-04-30T04:31:05.695Z,80.41
2017-04-30T04:31:31.164Z,80.6
2017-04-30T04:31:56.619Z,80.51
2017-04-30T04:32:22.131Z,80.51
2017-04-30T04:32:47.599Z,80.6
2017-04-30T04:33:13.074Z,80.69
2017-04-30T04:33:38.530Z,80.79
2017-04-30T04:34:03.987Z,80.22
2017-04-30T04:34:29.469Z,80.41
2017-04-30T04:34:54.886Z,80.32
2017-04-30T04:35:20.380Z,80.22
2017-04-30T04:35:45.824Z,80.13
2017-04-30T04:36:11.275Z,80.41
2017-04-30T04:36:36.760Z,80.32
2017-04-30T04:37:02.230Z,80.32
2017-04-30T04:37:27.687Z,80.51
2017-04-30T04:37:53.157Z,80.13
2017-04-30T04:38:18.635Z,79.66
2017-04-30T04:38:44.118Z,79.94
2017-04-30T04:39:09.566Z,79.94
2017-04-30T04:39:35.045Z,79.85
2017-04-30T04:40:00.507Z,79.75
2017-04-30T04:40:25.986Z,79.85
2017-04-30T04:40:51.417Z,79.75
2017-04-30T04:41:16.899Z,79.94
2017-04-30T04:41:42.405Z,79.47
2017-04-30T04:42:07.885Z,79.66
2017-04-30T04:42:33.316Z,79.66
2017-04-30T04:42:58.804Z,79.85
2017-04-30T04:43:24.277Z,79.66
2017-04-30T04:43:49.779Z,79.75
2017-04-30T04:44:15.206Z,79.56
2017-04-30T04:44:40.696Z,79.56
2017-04-30T04:45:06.162Z,79.75
2017-04-30T04:45:31.622Z,79.75
2017-04-30T04:45:57.091Z,79.66
2017-04-30T04:46:22.573Z,79.66
2017-04-30T04:46:48.016Z,79.94
2017-04-30T04:47:13.543Z,79.28
2017-04-30T04:47:39.021Z,79.47
2017-04-30T04:48:04.459Z,79.56
2017-04-30T04:48:29.939Z,79.09
2017-04-30T04:48:55.391Z,79.37
2017-04-30T04:49:20.878Z,79.18
2017-04-30T04:49:46.422Z,79.18
2017-04-30T04:50:11.868Z,79.5
2017-04-30T04:50:37.340Z,79.28
2017-04-30T04:51:02.842Z,78.71
2017-04-30T04:51:28.248Z,78.99
2017-04-30T04:51:53.720Z,78.42
2017-04-30T04:52:19.202Z,78.42
2017-04-30T04:52:44.679Z,78.33
2017-04-30T04:53:10.158Z,78.71
2017-04-30T04:53:35.647Z,78.75
2017-04-30T04:54:01.145Z,78.71
2017-04-30T04:54:26.592Z,78.42
2017-04-30T04:54:52.040Z,78.56
2017-04-30T04:55:17.514Z,78.56
2017-04-30T04:55:42.954Z,78.56
2017-04-30T04:56:08.431Z,78.75
2017-04-30T04:56:33.931Z,78.56
2017-04-30T04:56:59.427Z,78.37
2017-04-30T04:57:24.901Z,78.18
2017-04-30T04:57:50.342Z,78.18
2017-04-30T04:58:15.815Z,78.56
2017-04-30T04:58:41.308Z,78.27
2017-04-30T04:59:06.816Z,78.27
2017-04-30T04:59:32.252Z,78.27
2017-04-30T04:59:57.766Z,78.08
2017-04-30T05:00:23.219Z,77.8
2017-04-30T05:00:48.639Z,77.99
2017-04-30T05:01:14.098Z,77.8
2017-04-30T05:01:39.579Z,77.7
2017-04-30T05:02:05.059Z,77.8
2017-04-30T05:02:30.488Z,77.33
2017-04-30T05:02:55.982Z,77.61
2017-04-30T05:03:21.481Z,76.95
2017-04-30T05:03:46.962Z,77.14
2017-04-30T05:04:12.413Z,77.23
2017-04-30T05:04:37.933Z,77.33
2017-04-30T05:05:03.350Z,77.04
2017-04-30T05:05:28.843Z,77.23
2017-04-30T05:05:54.331Z,76.76
2017-04-30T05:06:19.798Z,77.04
2017-04-30T05:06:45.265Z,77.04
2017-04-30T05:07:10.730Z,76.38
2017-04-30T05:07:36.186Z,76.29
2017-04-30T05:08:01.630Z,76.57
2017-04-30T05:08:27.152Z,76.29
2017-04-30T05:08:52.625Z,76.19
2017-04-30T05:09:18.063Z,75.91
2017-04-30T05:09:43.534Z,76.29
2017-04-30T05:10:08.979Z,75.81
2017-04-30T05:10:34.448Z,76
2017-04-30T05:10:59.924Z,75.91
2017-04-30T05:11:25.374Z,75.91
2017-04-30T05:11:50.847Z,76.19
2017-04-30T05:12:16.320Z,75.81
2017-04-30T05:12:41.760Z,75.91
2017-04-30T05:13:07.225Z,75.91
2017-04-30T05:13:32.755Z,76
2017-04-30T05:13:58.241Z,76
2017-04-30T05:14:23.704Z,76
2017-04-30T05:14:49.173Z,76.29
2017-04-30T05:15:14.666Z,76.19
2017-04-30T05:15:40.125Z,76.1
2017-04-30T05:16:05.576Z,76.38
2017-04-30T05:16:31.090Z,76.1
2017-04-30T05:16:56.573Z,76.29
2017-04-30T05:17:22.010Z,75.62
2017-04-30T05:17:47.489Z,75.72
2017-04-30T05:18:12.965Z,75.62
2017-04-30T05:18:38.476Z,75.72
2017-04-30T05:19:03.900Z,75.38
2017-04-30T05:19:29.341Z,75.34
2017-04-30T05:19:54.825Z,75.57
2017-04-30T05:20:20.243Z,75.38
2017-04-30T05:20:45.701Z,75.28
2017-04-30T05:21:11.187Z,75.47
2017-04-30T05:21:36.643Z,75.19
2017-04-30T05:22:02.118Z,75.09
2017-04-30T05:22:27.559Z,74.71
2017-04-30T05:22:53.034Z,74.71
2017-04-30T05:23:18.541Z,74.81
2017-04-30T05:23:43.994Z,75
2017-04-30T05:24:09.453Z,74.71
2017-04-30T05:24:34.900Z,74.62
2017-04-30T05:25:00.346Z,74.62
2017-04-30T05:25:25.831Z,74.71
2017-04-30T05:25:51.337Z,74.33
2017-04-30T05:26:16.775Z,74.52
2017-04-30T05:26:42.219Z,74.43
2017-04-30T05:27:07.683Z,74.43
2017-04-30T05:27:33.137Z,74.52
2017-04-30T05:27:58.634Z,74.62
2017-04-30T05:28:24.104Z,74.24
2017-04-30T05:28:49.532Z,74.15
2017-04-30T05:29:14.974Z,74.24
2017-04-30T05:29:40.425Z,74.33
2017-04-30T05:30:05.888Z,73.77
2017-04-30T05:30:31.359Z,74.05
2017-04-30T05:30:56.796Z,73.86
2017-04-30T05:31:22.252Z,73.58
2017-04-30T05:31:47.729Z,73.2
2017-04-30T05:32:13.207Z,73.3
2017-04-30T05:32:38.634Z,73.39
2017-04-30T05:33:04.086Z,73.3
2017-04-30T05:33:29.573Z,73.3
2017-04-30T05:33:55.015Z,73.11
2017-04-30T05:34:20.506Z,72.92
2017-04-30T05:34:45.930Z,72.92
2017-04-30T05:35:11.404Z,72.25
2017-04-30T05:35:36.843Z,72.63
2017-04-30T05:36:02.347Z,73.01
2017-04-30T05:36:27.783Z,72.73
2017-04-30T05:36:53.232Z,72.82
2017-04-30T05:37:18.759Z,72.48
2017-04-30T05:37:44.168Z,72.25
2017-04-30T05:38:09.676Z,72.29
2017-04-30T05:38:35.146Z,72.38
2017-04-30T05:39:00.615Z,72.34
2017-04-30T05:39:26.075Z,72.48
2017-04-30T05:39:51.528Z,72.1
2017-04-30T05:40:16.998Z,71.97
2017-04-30T05:40:42.451Z,71.91
2017-04-30T05:41:07.914Z,72
2017-04-30T05:41:33.365Z,71.91
2017-04-30T05:41:58.849Z,72.19
2017-04-30T05:42:24.339Z,72.1
2017-04-30T05:42:49.800Z,72.19
2017-04-30T05:43:15.255Z,71.72
2017-04-30T05:43:40.718Z,71.62
2017-04-30T05:44:06.179Z,71.81
2017-04-30T05:44:31.654Z,71.81
2017-04-30T05:44:57.169Z,71.15
2017-04-30T05:45:22.628Z,71.44
2017-04-30T05:45:48.095Z,71.44
2017-04-30T05:46:13.548Z,71.44
2017-04-30T05:46:39.020Z,70.97
2017-04-30T05:47:04.535Z,71.34
2017-04-30T05:47:29.939Z,70.87
2017-04-30T05:47:55.425Z,71.44
2017-04-30T05:48:20.841Z,70.97
2017-04-30T05:48:46.301Z,71.44
2017-04-30T05:49:11.770Z,71.44
2017-04-30T05:49:37.245Z,71.34
2017-04-30T05:50:02.701Z,70.97
2017-04-30T05:50:28.184Z,70.87
2017-04-30T05:50:53.636Z,70.39
2017-04-30T05:51:19.092Z,70.58
2017-04-30T05:51:44.576Z,70.3
2017-04-30T05:52:10.031Z,70.2
2017-04-30T05:52:35.492Z,69.92
2017-04-30T05:53:01.004Z,69.82
2017-04-30T05:53:26.452Z,69.73
2017-04-30T05:53:51.898Z,69.64
2017-04-30T05:54:17.365Z,69.54
2017-04-30T05:54:42.853Z,69.73
2017-04-30T05:55:08.317Z,69.73
2017-04-30T05:55:33.757Z,69.73
2017-04-30T05:55:59.258Z,69.73
2017-04-30T05:56:24.697Z,69.82
2017-04-30T05:56:50.178Z,69.54
2017-04-30T05:57:15.648Z,69.54
2017-04-30T05:57:41.098Z,69.64
2017-04-30T05:58:06.602Z,69.54
2017-04-30T05:58:32.013Z,69.45
2017-04-30T05:58:57.489Z,69.35
2017-04-30T05:59:22.972Z,68.98
2017-04-30T05:59:48.451Z,69.1
2017-04-30T06:00:13.947Z,69.29
2017-04-30T06:00:39.421Z,68.82
2017-04-30T06:01:04.932Z,68.63
2017-04-30T06:01:30.368Z,68.63
2017-04-30T06:01:55.868Z,68.82
2017-04-30T06:02:21.277Z,69.1
2017-04-30T06:02:46.758Z,68.44
2017-04-30T06:03:12.249Z,68.25
2017-04-30T06:03:37.708Z,68.25
2017-04-30T06:04:03.186Z,68.15
2017-04-30T06:04:28.675Z,67.87
2017-04-30T06:04:54.136Z,68.06
2017-04-30T06:05:19.627Z,67.87
2017-04-30T06:05:45.094Z,67.4
2017-04-30T06:06:10.565Z,67.68
2017-04-30T06:06:36.036Z,67.77
2017-04-30T06:07:01.516Z,67.68
2017-04-30T06:07:26.989Z,67.4
2017-04-30T06:07:52.480Z,67.49
2017-04-30T06:08:17.956Z,67.49
2017-04-30T06:08:43.413Z,67.87
2017-04-30T06:09:08.897Z,66.83
2017-04-30T06:09:34.329Z,67.02
2017-04-30T06:09:59.809Z,66.93
2017-04-30T06:10:25.269Z,67.21
2017-04-30T06:10:50.744Z,66.83
2017-04-30T06:11:16.185Z,66.64
2017-04-30T06:11:41.685Z,66.26
2017-04-30T06:12:07.158Z,65.78
2017-04-30T06:12:32.634Z,65.97
2017-04-30T06:12:58.078Z,66.07
2017-04-30T06:13:23.524Z,65.88
2017-04-30T06:13:48.997Z,65.97
2017-04-30T06:14:14.466Z,66.07
2017-04-30T06:14:39.953Z,65.91
2017-04-30T06:15:05.467Z,65.63
2017-04-30T06:15:30.879Z,65.72
2017-04-30T06:15:56.375Z,65.91
2017-04-30T06:16:21.794Z,65.91
2017-04-30T06:16:47.283Z,65.91
2017-04-30T06:17:12.806Z,65.82
2017-04-30T06:17:38.207Z,66.2
2017-04-30T06:18:03.656Z,65.63
2017-04-30T06:18:29.120Z,65.91
2017-04-30T06:18:54.607Z,66.39
2017-04-30T06:19:20.100Z,65.91
2017-04-30T06:19:45.558Z,66.2
2017-04-30T06:20:11.032Z,66.1
2017-04-30T06:20:36.474Z,65.53
2017-04-30T06:21:01.920Z,65.44
2017-04-30T06:21:27.431Z,65.53
2017-04-30T06:21:52.879Z,65.44
2017-04-30T06:22:18.352Z,65.16
2017-04-30T06:22:43.814Z,65.16
2017-04-30T06:23:09.257Z,65.34
2017-04-30T06:23:34.760Z,65.44
2017-04-30T06:24:00.212Z,64.87
2017-04-30T06:24:25.675Z,64.87
2017-04-30T06:24:51.143Z,64.87
2017-04-30T06:25:16.639Z,64.68
2017-04-30T06:25:42.110Z,64.78
2017-04-30T06:26:07.554Z,64.78
2017-04-30T06:26:33.038Z,64.4
2017-04-30T06:26:58.536Z,64.4
2017-04-30T06:27:23.950Z,64.2
2017-04-30T06:27:49.407Z,64.3
2017-04-30T06:28:14.891Z,64.3
2017-04-30T06:28:40.399Z,64.11
2017-04-30T06:29:05.872Z,64.49
2017-04-30T06:29:31.357Z,63.92
2017-04-30T06:29:56.868Z,64.01
2017-04-30T06:30:22.299Z,63.64
2017-04-30T06:30:47.856Z,63.82
2017-04-30T06:31:13.246Z,64.01
2017-04-30T06:31:38.759Z,63.82
2017-04-30T06:32:04.282Z,63.73
2017-04-30T06:32:29.694Z,63.64
2017-04-30T06:32:55.182Z,63.45
2017-04-30T06:33:20.626Z,64.01
2017-04-30T06:33:46.086Z,65.06
2017-04-30T06:34:11.536Z,64.68
2017-04-30T06:34:37.044Z,64.11
2017-04-30T06:35:02.505Z,64.71
2017-04-30T06:35:28.044Z,64.33
2017-04-30T06:35:53.453Z,63.95
2017-04-30T06:36:18.908Z,63.95
2017-04-30T06:36:44.398Z,63.48
2017-04-30T06:37:09.826Z,63.57
2017-04-30T06:37:35.294Z,63.01
2017-04-30T06:38:00.789Z,63.2
2017-04-30T06:38:26.254Z,63.1
2017-04-30T06:38:51.707Z,63.2
2017-04-30T06:39:17.164Z,62.72
2017-04-30T06:39:42.617Z,62.91
2017-04-30T06:40:08.059Z,62.91
2017-04-30T06:40:33.614Z,62.43
2017-04-30T06:40:59.066Z,62.72
2017-04-30T06:41:24.537Z,62.15
2017-04-30T06:41:50.017Z,62.15
2017-04-30T06:42:15.470Z,62.05
2017-04-30T06:42:40.936Z,61.77
2017-04-30T06:43:06.418Z,61.77
2017-04-30T06:43:31.868Z,62.05
2017-04-30T06:43:57.315Z,62.24
2017-04-30T06:44:22.765Z,62.24
2017-04-30T06:44:48.216Z,62.05
2017-04-30T06:45:13.678Z,61.68
2017-04-30T06:45:39.146Z,61.58
2017-04-30T06:46:04.616Z,61.39
2017-04-30T06:46:30.132Z,61.49
2017-04-30T06:46:55.562Z,61.49
2017-04-30T06:47:21.072Z,61.39
2017-04-30T06:47:46.508Z,61.68
2017-04-30T06:48:11.990Z,61.39
2017-04-30T06:48:37.486Z,61.49
2017-04-30T06:49:02.936Z,61.77
2017-04-30T06:49:28.413Z,61.49
2017-04-30T06:49:53.875Z,61.68
2017-04-30T06:50:19.341Z,61.58
2017-04-30T06:50:44.799Z,61.39
2017-04-30T06:51:10.257Z,61.11
2017-04-30T06:51:35.723Z,60.92
2017-04-30T06:52:01.183Z,60.63
2017-04-30T06:52:26.633Z,60.95
2017-04-30T06:52:52.096Z,60.57
2017-04-30T06:53:17.552Z,60.25
2017-04-30T06:53:43.076Z,60.38
2017-04-30T06:54:08.514Z,60.1
2017-04-30T06:54:34.032Z,59.81
2017-04-30T06:54:59.467Z,60
2017-04-30T06:55:24.913Z,60.1
2017-04-30T06:55:50.382Z,60
2017-04-30T06:56:15.885Z,59.91
2017-04-30T06:56:41.369Z,60.1
2017-04-30T06:57:06.863Z,59.81
2017-04-30T06:57:32.328Z,60.19
2017-04-30T06:57:57.780Z,59.81
2017-04-30T06:58:23.261Z,60.1
2017-04-30T06:58:48.701Z,60.1
2017-04-30T06:59:14.180Z,60.28
2017-04-30T06:59:39.631Z,60
2017-04-30T07:00:05.171Z,59.91
2017-04-30T07:00:30.684Z,59.81
2017-04-30T07:00:56.158Z,60.47
2017-04-30T07:01:21.659Z,60.57
2017-04-30T07:01:47.096Z,60.19
2017-04-30T07:02:12.536Z,60.28
2017-04-30T07:02:38.010Z,60.1
2017-04-30T07:03:03.503Z,59.81
2017-04-30T07:03:28.948Z,59.81
2017-04-30T07:03:54.417Z,59.81
2017-04-30T07:04:19.894Z,60
2017-04-30T07:04:45.435Z,59.91
2017-04-30T07:05:10.950Z,60
2017-04-30T07:05:36.412Z,59.62
2017-04-30T07:06:01.844Z,59.52
2017-04-30T07:06:27.360Z,59.14
2017-04-30T07:06:52.861Z,59.08
2017-04-30T07:07:18.289Z,58.7
2017-04-30T07:07:43.784Z,58.76
2017-04-30T07:08:09.216Z,58.8
2017-04-30T07:08:34.706Z,58.76
2017-04-30T07:09:00.164Z,58.8
2017-04-30T07:09:25.733Z,58.22
2017-04-30T07:09:51.116Z,58.41
2017-04-30T07:10:16.601Z,58.51
2017-04-30T07:10:42.074Z,57.94
2017-04-30T07:11:07.572Z,57.84
2017-04-30T07:11:33.048Z,58.22
2017-04-30T07:11:58.487Z,58.22
2017-04-30T07:12:23.962Z,57.65
2017-04-30T07:12:49.431Z,57.56
2017-04-30T07:13:14.876Z,57.65
2017-04-30T07:13:40.364Z,58.03
2017-04-30T07:14:05.811Z,58.03
2017-04-30T07:14:31.253Z,57.84
2017-04-30T07:14:56.731Z,57.94
2017-04-30T07:15:22.242Z,57.94
2017-04-30T07:15:47.803Z,57.75
2017-04-30T07:16:13.150Z,57.46
2017-04-30T07:16:38.616Z,57.18
2017-04-30T07:17:04.085Z,56.8
2017-04-30T07:17:29.544Z,56.7
2017-04-30T07:17:55.039Z,56.89
2017-04-30T07:18:20.492Z,56.7
2017-04-30T07:18:45.975Z,56.51
2017-04-30T07:19:11.425Z,56.61
2017-04-30T07:19:36.892Z,56.61
2017-04-30T07:20:02.339Z,56.61
2017-04-30T07:20:27.815Z,56.61
2017-04-30T07:20:53.309Z,56.61
2017-04-30T07:21:18.794Z,56.61
2017-04-30T07:21:44.493Z,56.99
2017-04-30T07:22:09.811Z,57.28
2017-04-30T07:22:35.297Z,57.09
2017-04-30T07:23:00.771Z,57.65
2017-04-30T07:23:26.229Z,57.09
2017-04-30T07:23:51.666Z,56.89
2017-04-30T07:24:17.172Z,56.23
2017-04-30T07:24:42.607Z,55.97
2017-04-30T07:25:08.086Z,56.04
2017-04-30T07:25:33.573Z,56.07
2017-04-30T07:25:59.017Z,56.07
2017-04-30T07:26:24.520Z,55.97
2017-04-30T07:26:49.987Z,56.54
2017-04-30T07:27:15.434Z,55.88
2017-04-30T07:27:40.891Z,55.88
2017-04-30T07:28:06.360Z,55.59
2017-04-30T07:28:31.819Z,55.5
2017-04-30T07:28:57.280Z,55.5
2017-04-30T07:29:22.739Z,55.02
2017-04-30T11:24:56.022Z,27.81
2017-04-30T11:25:21.506Z,27.53
2017-04-30T11:25:47.098Z,27.71
2017-04-30T11:26:12.586Z,27.61
2017-04-30T11:26:38.100Z,28
2017-04-30T11:27:03.531Z,27.9
2017-04-30T11:27:29.041Z,28.09
2017-04-30T11:27:54.507Z,28.67
2017-04-30T11:28:19.997Z,28.57
2017-04-30T11:28:45.517Z,28.77
2017-04-30T11:29:11.004Z,28.78
2017-04-30T11:29:36.561Z,28.88
2017-04-30T11:30:02.044Z,28.88
2017-04-30T11:30:27.536Z,28.3
2017-04-30T11:30:52.987Z,28.49
2017-04-30T11:31:18.536Z,28.39
2017-04-30T11:31:43.920Z,27.92
2017-04-30T11:32:09.395Z,27.93
2017-04-30T11:32:34.878Z,28.01
2017-04-30T11:33:00.368Z,28.03
2017-04-30T11:33:25.785Z,27.73
2017-04-30T11:33:51.291Z,27.36
2017-04-30T11:34:16.804Z,27.06
2017-04-30T11:34:42.223Z,26.97
2017-04-30T11:35:07.721Z,27.06
2017-04-30T11:35:33.194Z,27.06
2017-04-30T11:35:58.692Z,27.06
2017-04-30T11:36:24.139Z,26.97
2017-04-30T11:36:49.687Z,26.87
2017-04-30T11:37:15.125Z,26.68
2017-04-30T11:37:40.604Z,26.78
2017-04-30T11:38:06.107Z,26.78
2017-04-30T11:38:31.588Z,27.06
2017-04-30T11:38:57.078Z,26.97
2017-04-30T11:39:22.506Z,27.26
2017-04-30T11:39:47.977Z,27.06
2017-04-30T11:40:13.458Z,26.87
2017-04-30T11:40:38.968Z,27.08
2017-04-30T11:41:04.463Z,26.89
2017-04-30T11:41:29.971Z,26.98
2017-04-30T11:41:55.445Z,27.17
2017-04-30T11:42:20.910Z,26.12
2017-04-30T11:42:46.427Z,25.93
2017-04-30T11:43:11.941Z,26.03
2017-04-30T11:43:37.372Z,26.12
2017-04-30T11:44:02.866Z,26.12
2017-04-30T11:44:28.332Z,26.21
2017-04-30T11:44:53.817Z,26.4
2017-04-30T11:45:19.342Z,26.89
2017-04-30T11:45:44.867Z,26.21
2017-04-30T11:46:10.317Z,25.64
2017-04-30T11:46:35.810Z,25.35
2017-04-30T11:47:01.288Z,25.54
2017-04-30T11:47:26.768Z,25.73
2017-04-30T11:47:52.184Z,25.83
2017-04-30T11:48:17.675Z,26.01
2017-04-30T11:48:43.150Z,25.83
2017-04-30T11:49:08.655Z,26.01
2017-04-30T11:49:34.128Z,26.1
2017-04-30T11:49:59.607Z,26.49
2017-04-30T11:50:25.062Z,26.39
2017-04-30T11:50:50.521Z,26.01
2017-04-30T11:51:15.981Z,26.39
2017-04-30T11:51:41.483Z,26.39
2017-04-30T11:52:06.925Z,26.21
2017-04-30T11:52:32.400Z,26.7
2017-04-30T11:52:57.897Z,26.31
2017-04-30T11:53:23.377Z,26.03
2017-04-30T11:53:48.852Z,26.12
2017-04-30T11:54:14.319Z,25.84
2017-04-30T11:54:39.798Z,25.46
2017-04-30T11:55:05.296Z,25.36
2017-04-30T11:55:30.748Z,25.07
2017-04-30T11:55:56.264Z,25.17
2017-04-30T11:56:21.696Z,25.09
2017-04-30T11:56:47.214Z,24.51
2017-04-30T11:57:12.658Z,23.84
2017-04-30T11:57:38.118Z,23.55
2017-04-30T11:58:03.581Z,23.84
2017-04-30T11:58:29.096Z,23.74
2017-04-30T11:58:54.586Z,23.46
2017-04-30T11:59:20.050Z,23.56
2017-04-30T11:59:45.524Z,23.38
2017-04-30T12:00:11.004Z,22.61
2017-04-30T12:00:36.472Z,22.32
2017-04-30T12:01:01.999Z,22.32
2017-04-30T12:01:27.416Z,21.85
2017-04-30T12:01:52.886Z,21.37
2017-04-30T12:02:18.364Z,20.98
2017-04-30T12:02:43.811Z,20.32
2017-04-30T12:03:09.357Z,19.95
2017-04-30T12:03:34.844Z,19.95
2017-04-30T12:04:00.329Z,18.99
2017-04-30T12:04:25.793Z,18.52
2017-04-30T12:04:51.261Z,17.66
2017-04-30T12:05:16.726Z,17.28
2017-04-30T12:05:42.203Z,16.52
2017-04-30T12:06:07.655Z,16.24
2017-04-30T12:06:33.113Z,15.66
2017-04-30T12:06:58.599Z,15.28
2017-04-30T12:07:24.052Z,14.61
2017-04-30T12:07:49.505Z,14.42
2017-04-30T12:08:14.968Z,14.43
2017-04-30T12:08:40.446Z,14.34
2017-04-30T12:09:05.933Z,13.57
2017-04-30T12:09:31.433Z,13.28
2017-04-30T12:09:56.946Z,13.09
2017-04-30T12:10:22.417Z,13.1
2017-04-30T12:10:47.887Z,12.81
2017-04-30T12:11:13.353Z,12.15
2017-04-30T12:11:38.806Z,11.95
2017-04-30T12:12:04.261Z,10.69
2017-04-30T12:12:29.800Z,9.91
2017-04-30T12:12:55.291Z,9.43
2017-04-30T12:13:20.746Z,9.05
2017-04-30T12:13:46.249Z,9.34
2017-04-30T12:14:11.714Z,9.14
2017-04-30T12:14:37.166Z,9.24
2017-04-30T12:15:02.646Z,8.56
2017-04-30T12:15:28.134Z,9.14
2017-04-30T12:15:53.576Z,9.14
2017-04-30T12:16:19.049Z,8.86
2017-04-30T12:16:44.549Z,8.76
2017-04-30T12:17:10.035Z,8.07
2017-04-30T12:17:35.507Z,7.97
2017-04-30T12:18:00.973Z,8.36
2017-04-30T12:18:26.490Z,8.36
2017-04-30T12:18:51.920Z,8.56
2017-04-30T12:19:17.403Z,8.56
2017-04-30T12:19:42.926Z,8.45
2017-04-30T12:20:08.406Z,8.55
2017-04-30T12:20:33.854Z,9.05
2017-04-30T12:20:59.333Z,8.56
2017-04-30T12:21:24.830Z,8.56
2017-04-30T12:21:50.300Z,8.17
2017-04-30T12:22:15.767Z,8.07
2017-04-30T12:22:41.267Z,7.98
2017-04-30T12:23:06.807Z,7.69
2017-04-30T12:23:32.219Z,7.3
2017-04-30T12:23:57.697Z,7.69
2017-04-30T12:24:23.128Z,7.89
2017-04-30T12:24:48.614Z,7.5
2017-04-30T12:25:14.087Z,7.5
2017-04-30T12:25:39.570Z,7.4
2017-04-30T12:26:05.025Z,7.79
2017-04-30T12:26:30.511Z,7.39
2017-04-30T12:26:55.987Z,7.79
2017-04-30T12:27:21.461Z,7.98
2017-04-30T12:27:46.943Z,8.47
2017-04-30T12:28:12.443Z,8.18
2017-04-30T12:28:37.884Z,7.89
2017-04-30T12:29:03.360Z,7.41
2017-04-30T12:29:28.836Z,7.02
2017-04-30T12:29:54.308Z,7.12
2017-04-30T12:30:19.783Z,7.42
2017-04-30T12:30:45.261Z,7.42
2017-04-30T12:31:10.754Z,7.13
2017-04-30T12:31:36.227Z,6.15
2017-04-30T12:32:01.717Z,5.67
2017-04-30T12:32:27.168Z,5.28
2017-04-30T12:32:52.651Z,5.18
2017-04-30T12:33:18.112Z,5.08
2017-04-30T12:33:43.598Z,4.69
2017-04-30T12:34:09.107Z,5.08
2017-04-30T12:34:34.567Z,5.18
2017-04-30T12:35:00.048Z,5.28
2017-04-30T12:35:25.508Z,5.18
2017-04-30T12:35:51.021Z,5.18
2017-04-30T12:36:16.477Z,5.08
2017-04-30T12:36:41.960Z,4.88
2017-04-30T12:37:07.446Z,4.89
2017-04-30T12:37:32.922Z,4.89
2017-04-30T12:37:58.417Z,4.49
2017-04-30T12:38:23.915Z,4.49
2017-04-30T12:38:49.503Z,4.88
2017-04-30T12:39:14.867Z,4.98
2017-04-30T12:39:40.355Z,4.69
2017-04-30T12:40:05.858Z,4.88
2017-04-30T12:40:31.343Z,4.98
2017-04-30T12:40:56.883Z,4.79
2017-04-30T12:41:22.300Z,4.88
2017-04-30T12:41:47.784Z,4.98
2017-04-30T12:42:13.254Z,5.08
2017-04-30T12:42:38.721Z,4.98
2017-04-30T12:43:04.251Z,4.88
2017-04-30T12:43:29.805Z,5.08
2017-04-30T12:43:55.284Z,5.08
2017-04-30T12:44:20.778Z,5.28
2017-04-30T12:44:46.260Z,5.47
2017-04-30T12:45:11.767Z,4.89
2017-04-30T12:45:37.237Z,4.5
2017-04-30T12:46:02.711Z,3.62
2017-04-30T12:46:28.163Z,3.62
2017-04-30T12:46:53.653Z,3.62
2017-04-30T12:47:19.163Z,4.21
2017-04-30T12:47:44.671Z,3.72
2017-04-30T12:48:10.147Z,3.63
2017-04-30T12:48:35.644Z,3.72
2017-04-30T12:49:01.142Z,3.63
2017-04-30T12:49:26.637Z,3.63
2017-04-30T12:49:52.104Z,3.72
2017-04-30T12:50:17.575Z,3.33
2017-04-30T12:50:43.073Z,3.33
2017-04-30T12:51:08.547Z,3.72
2017-04-30T12:51:34.029Z,3.43
2017-04-30T12:51:59.503Z,3.43
2017-04-30T12:52:25.021Z,3.63
2017-04-30T12:52:50.492Z,3.83
2017-04-30T12:53:15.979Z,3.83
2017-04-30T12:53:41.428Z,3.63
2017-04-30T12:54:06.897Z,3.44
2017-04-30T12:54:32.381Z,2.94
2017-04-30T12:54:57.838Z,3.04
2017-04-30T12:55:23.319Z,2.65
2017-04-30T12:55:48.818Z,2.06
2017-04-30T12:56:14.297Z,1.96
2017-04-30T12:56:39.814Z,1.96
2017-04-30T12:57:05.321Z,1.96
2017-04-30T12:57:30.791Z,2.45
2017-04-30T12:57:56.190Z,2.84
2017-04-30T12:58:21.688Z,2.64
2017-04-30T12:58:47.173Z,3.13
2017-04-30T12:59:12.644Z,3.03
2017-04-30T12:59:38.099Z,3.13
2017-04-30T13:00:03.556Z,3.03
2017-04-30T13:00:29.047Z,3.03
2017-04-30T13:00:54.498Z,3.42
2017-04-30T13:01:19.983Z,3.33
2017-04-30T13:01:45.491Z,3.32
2017-04-30T13:02:10.945Z,3.81
2017-04-30T13:02:36.396Z,4
2017-04-30T13:03:01.887Z,3.91
2017-04-30T13:03:27.358Z,4
2017-04-30T13:03:52.809Z,4.59
2017-04-30T13:04:18.354Z,4.2
2017-04-30T13:04:43.819Z,4.49
2017-04-30T13:05:09.291Z,4.49
2017-04-30T13:05:34.745Z,4.49
2017-04-30T13:06:00.208Z,4.2
2017-04-30T13:06:25.686Z,3.91
2017-04-30T13:06:51.130Z,4.21
2017-04-30T13:07:16.650Z,3.91
2017-04-30T13:07:42.124Z,3.81
2017-04-30T13:08:07.623Z,4.5
2017-04-30T13:08:33.105Z,4.3
2017-04-30T13:08:58.572Z,3.72
2017-04-30T13:09:24.054Z,3.52
2017-04-30T13:09:49.551Z,3.62
2017-04-30T13:10:15.025Z,3.13
2017-04-30T13:10:40.490Z,3.23
2017-04-30T13:11:05.996Z,3.43
2017-04-30T13:11:31.422Z,3.04
2017-04-30T13:11:56.930Z,2.84
2017-04-30T13:12:22.481Z,2.94
2017-04-30T13:12:47.978Z,2.94
2017-04-30T13:13:13.461Z,3.81
2017-04-30T13:13:38.938Z,4
2017-04-30T13:14:04.398Z,4.68
2017-04-30T13:14:29.900Z,5.16
2017-04-30T13:14:55.334Z,5.65
2017-04-30T13:15:20.830Z,6.32
2017-04-30T13:15:46.274Z,6.9
2017-04-30T13:16:11.802Z,7.48
2017-04-30T13:16:37.255Z,7.87
2017-04-30T13:17:02.731Z,7.96
2017-04-30T13:17:28.199Z,8.44
2017-04-30T13:17:53.685Z,8.92
2017-04-30T13:18:19.181Z,9.2
2017-04-30T13:18:44.642Z,9.59
2017-04-30T13:19:10.111Z,9.98
2017-04-30T13:19:35.556Z,9.88
2017-04-30T13:20:01.096Z,10.36
2017-04-30T13:20:26.574Z,10.74
2017-04-30T13:20:52.086Z,11.22
2017-04-30T13:21:17.570Z,11.8
2017-04-30T13:21:43.091Z,11.7
2017-04-30T13:22:08.553Z,12.28
2017-04-30T13:22:34.039Z,12.08
2017-04-30T13:22:59.522Z,11.98
2017-04-30T13:23:25.013Z,12.46
2017-04-30T13:23:50.475Z,12.75
2017-04-30T13:24:15.950Z,12.84
2017-04-30T13:24:41.424Z,13.23
2017-04-30T13:25:06.875Z,13.03
2017-04-30T13:25:32.344Z,13.71
2017-04-30T13:25:57.825Z,13.81
2017-04-30T13:26:23.308Z,13.52
2017-04-30T13:26:48.807Z,13.14
2017-04-30T13:27:14.281Z,12.96